createdAt,value
2023-04-19T00:00:10.375Z,4.93
2023-04-19T00:05:32.570Z,4.47
2023-04-19T00:10:54.416Z,4.70
2023-04-19T00:16:16.886Z,4.60
2023-04-19T00:21:38.784Z,4.57
2023-04-19T00:27:00.586Z,4.47
2023-04-19T00:32:22.464Z,5.13
2023-04-19T00:37:44.314Z,4.60
2023-04-19T00:43:06.133Z,4.68
2023-04-19T00:48:29.292Z,4.65
2023-04-19T00:53:52.474Z,4.63
2023-04-19T00:59:15.344Z,4.50
2023-04-19T01:04:37.410Z,4.18
2023-04-19T01:09:59.345Z,4.47
2023-04-19T01:15:21.188Z,3.85
2023-04-19T01:20:43.049Z,4.60
2023-04-19T01:26:05.952Z,4.95
2023-04-19T01:31:27.829Z,5.47
2023-04-19T01:36:49.875Z,6.22
2023-04-19T01:42:11.759Z,5.38
2023-04-19T01:47:33.704Z,6.15
2023-04-19T01:52:55.571Z,6.07
2023-04-19T01:58:17.384Z,5.93
2023-04-19T02:03:40.269Z,6.35
2023-04-19T02:09:02.379Z,6.65
2023-04-19T02:14:24.233Z,6.13
2023-04-19T02:19:46.032Z,7.00
2023-04-19T02:25:08.242Z,7.13
2023-04-19T02:30:30.156Z,6.57
2023-04-19T02:35:51.971Z,7.45
2023-04-19T02:41:13.830Z,7.57
2023-04-19T02:46:35.697Z,7.07
2023-04-19T02:51:57.539Z,7.07
2023-04-19T02:57:19.331Z,6.95
2023-04-19T03:02:42.453Z,7.57
2023-04-19T03:08:04.622Z,7.15
2023-04-19T03:13:26.435Z,7.63
2023-04-19T03:18:49.480Z,7.35
2023-04-19T03:24:11.542Z,8.38
2023-04-19T03:29:33.372Z,9.80
2023-04-19T03:34:55.366Z,7.70
2023-04-19T03:40:17.218Z,7.78
2023-04-19T03:45:39.252Z,7.82
2023-04-19T03:51:01.087Z,8.57
2023-04-19T03:56:22.891Z,7.75
2023-04-19T04:01:44.710Z,7.63
2023-04-19T04:07:06.568Z,7.55
2023-04-19T04:12:28.383Z,6.80
2023-04-19T04:17:50.535Z,6.82
2023-04-19T04:23:12.402Z,7.25
2023-04-19T04:28:34.224Z,6.20
2023-04-19T04:33:56.016Z,6.28
2023-04-19T04:39:17.818Z,6.45
2023-04-19T04:44:40.235Z,6.53
2023-04-19T04:50:02.767Z,6.65
2023-04-19T04:55:24.586Z,6.28
2023-04-19T05:00:46.603Z,6.47
2023-04-19T05:06:08.404Z,6.22
2023-04-19T05:11:30.239Z,6.72
2023-04-19T05:16:52.085Z,6.72
2023-04-19T05:22:14.004Z,7.43
2023-04-19T05:27:35.821Z,7.43
2023-04-19T05:32:57.657Z,8.18
2023-04-19T05:38:19.869Z,7.03
2023-04-19T05:43:41.701Z,7.68
2023-04-19T05:49:03.560Z,7.25
2023-04-19T05:54:25.435Z,8.48
2023-04-19T05:59:47.359Z,6.80
2023-04-19T06:05:11.071Z,7.70
2023-04-19T06:10:44.377Z,7.93
2023-04-19T06:16:13.551Z,8.30
2023-04-19T06:21:35.402Z,9.15
2023-04-19T06:26:57.390Z,10.70
2023-04-19T06:32:19.286Z,9.68
2023-04-19T06:37:41.229Z,8.70
2023-04-19T06:43:03.176Z,10.23
2023-04-19T06:48:27.766Z,8.40
2023-04-19T06:53:50.325Z,8.20
2023-04-19T06:59:17.277Z,8.82
2023-04-19T07:04:39.331Z,9.40
2023-04-19T07:10:01.268Z,8.20
2023-04-19T07:15:23.221Z,9.23
2023-04-19T07:20:45.016Z,9.20
2023-04-19T07:26:07.559Z,9.30
2023-04-19T07:31:29.371Z,8.80
2023-04-19T07:36:51.336Z,7.93
2023-04-19T07:42:13.443Z,7.53
2023-04-19T07:47:35.281Z,8.18
2023-04-19T07:52:57.102Z,11.93
2023-04-19T07:58:18.967Z,6.95
2023-04-19T08:03:40.919Z,7.07
2023-04-19T08:09:02.896Z,7.40
2023-04-19T08:14:37.765Z,7.28
2023-04-19T08:20:06.486Z,7.40
2023-04-19T08:25:28.293Z,6.43
2023-04-19T08:30:50.144Z,6.55
2023-04-19T08:36:12.667Z,6.50
2023-04-19T08:41:35.812Z,6.45
2023-04-19T08:46:59.322Z,6.18
2023-04-19T08:52:22.541Z,6.38
2023-04-19T08:57:44.512Z,6.28
2023-04-19T09:03:08.064Z,6.88
2023-04-19T09:08:31.386Z,6.05
2023-04-19T09:14:08.294Z,5.70
2023-04-19T09:19:45.724Z,6.45
2023-04-19T09:30:37.858Z,5.80
2023-04-19T09:36:06.702Z,5.80
2023-04-19T09:41:28.624Z,6.45
2023-04-19T09:46:52.991Z,6.10
2023-04-19T09:52:15.305Z,5.70
2023-04-19T09:57:37.135Z,6.65
2023-04-19T10:02:59.142Z,6.32
2023-04-19T10:08:21.097Z,6.80
2023-04-19T10:13:45.146Z,6.32
2023-04-19T10:19:10.798Z,7.80
2023-04-19T10:24:33.778Z,6.30
2023-04-19T10:29:55.582Z,7.05
2023-04-19T10:35:26.190Z,6.65
2023-04-19T10:41:01.208Z,6.63
2023-04-19T10:46:23.211Z,6.57
2023-04-19T10:51:51.069Z,7.07
2023-04-19T10:57:12.940Z,6.68
2023-04-19T11:02:34.945Z,5.93
2023-04-19T11:07:56.805Z,5.32
2023-04-19T11:13:18.739Z,6.22
2023-04-19T11:18:40.548Z,5.75
2023-04-19T11:24:12.204Z,5.63
2023-04-19T11:29:34.031Z,5.75
2023-04-19T11:34:56.554Z,6.18
2023-04-19T11:40:20.456Z,5.50
2023-04-19T11:45:42.813Z,5.45
2023-04-19T11:51:05.317Z,5.25
2023-04-19T11:56:27.197Z,5.03
2023-04-19T12:01:49.027Z,5.25
2023-04-19T12:07:12.164Z,5.22
2023-04-19T12:12:34.070Z,5.20
2023-04-19T12:18:02.777Z,5.53
2023-04-19T12:23:24.655Z,4.53
2023-04-19T12:28:46.445Z,3.92
2023-04-19T12:34:08.269Z,4.20
2023-04-19T12:39:30.656Z,4.10
2023-04-19T12:44:52.470Z,4.03
2023-04-19T12:50:15.580Z,4.00
2023-04-19T12:55:37.424Z,4.50
2023-04-19T13:00:59.271Z,4.20
2023-04-19T13:06:21.227Z,5.05
2023-04-19T13:11:43.079Z,3.90
2023-04-19T13:17:04.940Z,4.25
2023-04-19T13:22:26.849Z,4.63
2023-04-19T13:27:48.660Z,4.78
2023-04-19T13:33:10.783Z,4.50
2023-04-19T13:38:32.736Z,4.95
2023-04-19T13:43:54.547Z,4.32
2023-04-19T13:49:16.350Z,4.55
2023-04-19T13:54:38.199Z,4.10
2023-04-19T14:00:00.015Z,4.68
2023-04-19T14:05:21.943Z,5.63
2023-04-19T14:10:43.876Z,5.30
2023-04-19T14:16:06.033Z,7.53
2023-04-19T14:21:27.943Z,6.43
2023-04-19T14:27:03.158Z,6.05
2023-04-19T14:32:31.405Z,5.72
2023-04-19T14:37:53.329Z,5.07
2023-04-19T14:43:15.496Z,5.50
2023-04-19T14:48:37.323Z,5.35
2023-04-19T14:53:59.409Z,5.47
2023-04-19T14:59:21.363Z,5.28
2023-04-19T15:04:43.418Z,5.63
2023-04-19T15:10:06.088Z,5.68
2023-04-19T15:15:28.058Z,3.60
2023-04-19T15:20:50.257Z,3.67
2023-04-19T15:26:12.107Z,3.00
2023-04-19T15:31:34.021Z,3.38
2023-04-19T15:36:55.873Z,3.60
2023-04-19T15:42:17.731Z,4.72
2023-04-19T15:47:39.632Z,3.42
2023-04-19T15:53:01.843Z,4.35
2023-04-19T15:58:23.865Z,4.40
2023-04-19T16:03:45.938Z,4.18
2023-04-19T16:09:07.897Z,4.95
2023-04-19T16:14:29.741Z,4.85
2023-04-19T16:19:51.629Z,4.97
2023-04-19T16:25:14.501Z,4.70
2023-04-19T16:30:36.321Z,5.15
2023-04-19T16:35:58.171Z,7.68
2023-04-19T16:41:20.016Z,8.57
2023-04-19T16:46:42.784Z,11.07
2023-04-19T16:52:04.689Z,12.10
2023-04-19T16:57:26.684Z,12.27
2023-04-19T17:02:48.583Z,12.02
2023-04-19T17:08:10.602Z,13.32
2023-04-19T17:13:32.587Z,12.05
2023-04-19T17:18:55.630Z,12.13
2023-04-19T17:24:17.464Z,13.20
2023-04-19T17:29:39.346Z,13.60
2023-04-19T17:35:01.220Z,14.30
2023-04-19T17:40:23.050Z,13.27
2023-04-19T17:45:44.875Z,14.45
2023-04-19T17:51:07.511Z,13.07
2023-04-19T17:56:29.393Z,12.93
2023-04-19T18:01:51.215Z,14.27
2023-04-19T18:07:13.406Z,15.32
2023-04-19T18:12:35.462Z,14.45
2023-04-19T18:17:57.342Z,15.05
2023-04-19T18:23:19.220Z,15.07
2023-04-19T18:28:41.031Z,14.23
2023-04-19T18:34:02.842Z,13.90
2023-04-19T18:39:24.704Z,14.18
2023-04-19T18:44:53.607Z,11.98
2023-04-19T18:50:19.150Z,12.60
2023-04-19T18:55:41.312Z,12.23
2023-04-19T19:01:03.304Z,10.82
2023-04-19T19:06:25.310Z,10.43
2023-04-19T19:11:55.959Z,9.20
2023-04-19T19:17:19.008Z,8.35
2023-04-19T19:22:40.867Z,7.93
2023-04-19T19:28:08.281Z,7.50
2023-04-19T19:33:32.780Z,7.65
2023-04-19T19:38:54.766Z,6.82
2023-04-19T19:44:16.655Z,5.57
2023-04-19T19:55:03.582Z,6.20
2023-04-19T20:00:42.887Z,6.20
2023-04-19T20:11:31.869Z,5.60
2023-04-19T20:16:54.358Z,6.53
2023-04-19T20:22:16.264Z,5.70
2023-04-19T20:27:38.135Z,6.90
2023-04-19T20:33:00.013Z,6.38
2023-04-19T20:38:21.877Z,8.02
2023-04-19T20:43:43.754Z,8.50
2023-04-19T20:49:05.635Z,10.25
2023-04-19T20:54:27.499Z,11.05
2023-04-19T20:59:50.231Z,11.75
2023-04-19T21:05:12.047Z,11.93
2023-04-19T21:10:33.967Z,11.88
2023-04-19T21:15:55.904Z,11.95
2023-04-19T21:21:17.744Z,12.00
2023-04-19T21:26:39.626Z,11.95
2023-04-19T21:32:01.610Z,12.70
2023-04-19T21:37:23.611Z,14.48
2023-04-19T21:42:45.434Z,16.35
2023-04-19T21:48:07.256Z,14.90
2023-04-19T21:53:29.168Z,14.32
2023-04-19T21:58:51.017Z,14.98
2023-04-19T22:04:12.858Z,14.52
2023-04-19T22:09:34.726Z,14.48
2023-04-19T22:14:56.567Z,14.88
2023-04-19T22:20:18.570Z,15.00
2023-04-19T22:25:40.503Z,14.23
2023-04-19T22:31:02.373Z,12.95
2023-04-19T22:36:24.242Z,11.68
2023-04-19T22:41:46.105Z,12.90
2023-04-19T22:47:07.937Z,11.30
2023-04-19T22:52:29.859Z,10.07
2023-04-19T22:57:51.719Z,11.63
2023-04-19T23:03:13.721Z,11.40
2023-04-19T23:08:35.601Z,11.27
2023-04-19T23:13:57.441Z,11.30
2023-04-19T23:19:19.433Z,11.15
2023-04-19T23:24:41.451Z,11.70
2023-04-19T23:30:04.964Z,14.90
2023-04-19T23:35:26.978Z,19.50
2023-04-19T23:40:48.883Z,24.10
2023-04-19T23:46:10.712Z,14.65
2023-04-19T23:51:32.560Z,22.38
2023-04-19T23:56:55.195Z,13.32
